Terminal Aerodrome Forecast
Issued by NWS Louisville, KY

Home | Current Version | Previous Version | Text Only | Print | Product List | Glossary On
Versions: 1 2 3 4 5 6 7 8 9 10 11 12 13
000
FTUS43 KLMK 260524
TAFSDF
TAF
KSDF 260524Z 2606/2712 20005KT P6SM BKN250
     FM261200 VRB03KT P6SM -SHRA VCTS BKN030CB
     FM261700 23004KT P6SM BKN035 BKN070 PROB30 2618/2623 4SM -TSRA
      OVC035CB
     FM270700 VRB03KT P6SM SCT110=

USA.gov is the U.S. government's official web portal to all federal, state and local government web resources and services.